P20 weather

Avi Suquilla Airport
Parker, Arizona, United States

Public forecast

Using degrees Fahrenheit for public forecast. Weather courtesy of forecast.io.

Closest aviation weather report (METAR) to Avi Suquilla Airport

Closest report is Lake Havasu City Airport, 25.6 nm (47.4 km) N. Retrieved 2019/12/16 02:35 UTC (0 seconds ago):

KHII 160235Z AUTO 33006KT 10SM CLR 14/M01 A3003 RMK AO2

Closest aviation forecast (TAF) to Avi Suquilla Airport

Closest forecast is Blythe Airport, 38.9 nm (72.0 km) SW. Retrieved 2019-12-16 00:24 UTC (2 hours ago):

TAF KBLH 152322Z 1600/1624 34014G20KT P6SM SKC FM160100 34012KT P6SM SKC FM161700 36016KT P6SM SKC